sensor_id;sensor_type;location;lat;lon;timestamp;pressure;altitude;pressure_sealevel;temperature;humidity
66273;BME280;58450;52.150;4.466;2023-04-28T00:00:51;101357.38;;;10.56;75.75
66273;BME280;58450;52.150;4.466;2023-04-28T00:03:18;101358.72;;;10.60;76.16
66273;BME280;58450;52.150;4.466;2023-04-28T00:05:46;101361.94;;;10.56;76.28
66273;BME280;58450;52.150;4.466;2023-04-28T00:08:15;101350.16;;;10.57;75.74
66273;BME280;58450;52.150;4.466;2023-04-28T00:10:43;101350.31;;;10.55;76.34
66273;BME280;58450;52.150;4.466;2023-04-28T00:13:10;101353.22;;;10.54;76.56
66273;BME280;58450;52.150;4.466;2023-04-28T00:15:38;101340.25;;;10.49;77.49
66273;BME280;58450;52.150;4.466;2023-04-28T00:18:06;101337.41;;;10.51;78.28
66273;BME280;58450;52.150;4.466;2023-04-28T00:20:33;101344.28;;;10.53;79.52
66273;BME280;58450;52.150;4.466;2023-04-28T00:23:00;101333.69;;;10.52;79.74
66273;BME280;58450;52.150;4.466;2023-04-28T00:25:29;101337.91;;;10.46;82.01
66273;BME280;58450;52.150;4.466;2023-04-28T00:27:57;101333.88;;;10.42;81.90
66273;BME280;58450;52.150;4.466;2023-04-28T00:30:24;101320.44;;;10.42;82.65
66273;BME280;58450;52.150;4.466;2023-04-28T00:32:52;101311.34;;;10.34;82.95
66273;BME280;58450;52.150;4.466;2023-04-28T00:35:19;101297.25;;;10.32;83.47
66273;BME280;58450;52.150;4.466;2023-04-28T00:37:47;101299.44;;;10.29;83.88
66273;BME280;58450;52.150;4.466;2023-04-28T00:40:15;101292.56;;;10.26;83.58
66273;BME280;58450;52.150;4.466;2023-04-28T00:42:44;101290.88;;;10.25;83.52
66273;BME280;58450;52.150;4.466;2023-04-28T00:45:11;101296.78;;;10.20;84.06
66273;BME280;58450;52.150;4.466;2023-04-28T00:47:39;101291.75;;;10.17;84.22
66273;BME280;58450;52.150;4.466;2023-04-28T00:50:09;101288.72;;;10.20;84.85
66273;BME280;58450;52.150;4.466;2023-04-28T00:52:39;101288.38;;;10.24;84.83
66273;BME280;58450;52.150;4.466;2023-04-28T00:55:08;101272.38;;;10.22;84.91
66273;BME280;58450;52.150;4.466;2023-04-28T00:57:36;101273.47;;;10.13;85.16
66273;BME280;58450;52.150;4.466;2023-04-28T01:00:06;101267.91;;;10.14;86.08
66273;BME280;58450;52.150;4.466;2023-04-28T01:02:34;101266.91;;;10.07;86.90
66273;BME280;58450;52.150;4.466;2023-04-28T01:05:02;101259.47;;;10.17;87.36
66273;BME280;58450;52.150;4.466;2023-04-28T01:07:30;101260.69;;;10.15;87.19
66273;BME280;58450;52.150;4.466;2023-04-28T01:09:59;101261.97;;;10.19;87.35
66273;BME280;58450;52.150;4.466;2023-04-28T01:12:27;101258.28;;;10.20;87.11
66273;BME280;58450;52.150;4.466;2023-04-28T01:14:55;101258.13;;;10.22;87.64
66273;BME280;58450;52.150;4.466;2023-04-28T01:17:24;101256.75;;;10.26;87.37
66273;BME280;58450;52.150;4.466;2023-04-28T01:19:52;101257.25;;;10.21;87.81
66273;BME280;58450;52.150;4.466;2023-04-28T01:22:20;101249.84;;;10.23;87.88
66273;BME280;58450;52.150;4.466;2023-04-28T01:24:49;101245.69;;;10.20;88.06
66273;BME280;58450;52.150;4.466;2023-04-28T01:27:17;101245.03;;;10.18;88.76
66273;BME280;58450;52.150;4.466;2023-04-28T01:29:44;101243.00;;;10.20;88.68
66273;BME280;58450;52.150;4.466;2023-04-28T01:32:11;101239.44;;;10.20;89.32
66273;BME280;58450;52.150;4.466;2023-04-28T01:34:39;101236.59;;;10.22;89.47
66273;BME280;58450;52.150;4.466;2023-04-28T01:37:06;101239.63;;;10.18;89.96
66273;BME280;58450;52.150;4.466;2023-04-28T01:39:34;101222.50;;;10.19;90.37
66273;BME280;58450;52.150;4.466;2023-04-28T01:42:03;101226.34;;;10.17;91.43
66273;BME280;58450;52.150;4.466;2023-04-28T01:44:31;101231.56;;;10.18;91.22
66273;BME280;58450;52.150;4.466;2023-04-28T01:46:59;101228.69;;;10.20;91.78
66273;BME280;58450;52.150;4.466;2023-04-28T01:49:26;101218.78;;;10.20;91.56
66273;BME280;58450;52.150;4.466;2023-04-28T01:51:53;101210.22;;;10.17;91.90
66273;BME280;58450;52.150;4.466;2023-04-28T01:54:21;101211.59;;;10.13;92.47
66273;BME280;58450;52.150;4.466;2023-04-28T01:56:48;101208.72;;;10.14;92.82
66273;BME280;58450;52.150;4.466;2023-04-28T01:59:17;101206.88;;;10.15;92.71
66273;BME280;58450;52.150;4.466;2023-04-28T02:01:45;101201.69;;;10.13;92.83
66273;BME280;58450;52.150;4.466;2023-04-28T02:04:12;101199.19;;;10.12;92.73
66273;BME280;58450;52.150;4.466;2023-04-28T02:06:40;101189.28;;;10.04;93.99
66273;BME280;58450;52.150;4.466;2023-04-28T02:09:07;101182.72;;;10.07;93.74
66273;BME280;58450;52.150;4.466;2023-04-28T02:11:35;101175.13;;;10.10;93.30
66273;BME280;58450;52.150;4.466;2023-04-28T02:14:03;101174.97;;;10.12;93.49
66273;BME280;58450;52.150;4.466;2023-04-28T02:16:31;101172.28;;;10.12;93.55
66273;BME280;58450;52.150;4.466;2023-04-28T02:18:59;101170.59;;;10.11;93.43
66273;BME280;58450;52.150;4.466;2023-04-28T02:21:27;101174.97;;;10.12;93.16
66273;BME280;58450;52.150;4.466;2023-04-28T02:23:54;101170.97;;;10.08;93.27
66273;BME280;58450;52.150;4.466;2023-04-28T02:26:21;101170.59;;;10.11;93.36
66273;BME280;58450;52.150;4.466;2023-04-28T02:28:49;101167.28;;;10.00;93.51
66273;BME280;58450;52.150;4.466;2023-04-28T02:31:16;101161.22;;;10.07;93.77
66273;BME280;58450;52.150;4.466;2023-04-28T02:33:45;101152.28;;;10.06;93.86
66273;BME280;58450;52.150;4.466;2023-04-28T02:36:13;101161.72;;;10.02;93.91
66273;BME280;58450;52.150;4.466;2023-04-28T02:38:40;101154.31;;;10.04;94.17
66273;BME280;58450;52.150;4.466;2023-04-28T02:41:08;101158.56;;;9.98;94.67
66273;BME280;58450;52.150;4.466;2023-04-28T02:43:36;101161.25;;;9.98;95.21
66273;BME280;58450;52.150;4.466;2023-04-28T02:46:04;101156.03;;;9.97;95.16
66273;BME280;58450;52.150;4.466;2023-04-28T02:48:32;101158.56;;;9.98;95.09
66273;BME280;58450;52.150;4.466;2023-04-28T02:51:02;101147.97;;;9.97;95.89
66273;BME280;58450;52.150;4.466;2023-04-28T02:53:30;101138.97;;;9.81;96.74
66273;BME280;58450;52.150;4.466;2023-04-28T02:55:58;101138.72;;;9.99;96.45
66273;BME280;58450;52.150;4.466;2023-04-28T02:58:27;101138.53;;;10.01;96.64
66273;BME280;58450;52.150;4.466;2023-04-28T03:00:54;101131.00;;;9.96;97.20
66273;BME280;58450;52.150;4.466;2023-04-28T03:03:21;101127.81;;;9.93;97.41
66273;BME280;58450;52.150;4.466;2023-04-28T03:05:49;101131.41;;;9.85;98.08
66273;BME280;58450;52.150;4.466;2023-04-28T03:08:18;101114.06;;;9.87;98.38
66273;BME280;58450;52.150;4.466;2023-04-28T03:10:46;101111.72;;;9.84;98.74
66273;BME280;58450;52.150;4.466;2023-04-28T03:13:13;101110.91;;;9.84;99.04
66273;BME280;58450;52.150;4.466;2023-04-28T03:15:40;101109.91;;;9.85;99.47
66273;BME280;58450;52.150;4.466;2023-04-28T03:18:08;101105.56;;;9.75;99.96
66273;BME280;58450;52.150;4.466;2023-04-28T03:20:36;101097.66;;;9.74;100.00
66273;BME280;58450;52.150;4.466;2023-04-28T03:23:03;101098.84;;;9.80;100.00
66273;BME280;58450;52.150;4.466;2023-04-28T03:25:32;101092.59;;;9.79;100.00
66273;BME280;58450;52.150;4.466;2023-04-28T03:28:00;101083.72;;;9.79;100.00
66273;BME280;58450;52.150;4.466;2023-04-28T03:30:27;101083.06;;;9.76;100.00
66273;BME280;58450;52.150;4.466;2023-04-28T03:32:55;101081.72;;;9.72;100.00
66273;BME280;58450;52.150;4.466;2023-04-28T03:35:22;101064.63;;;9.65;100.00
66273;BME280;58450;52.150;4.466;2023-04-28T03:37:50;101075.22;;;9.67;100.00
66273;BME280;58450;52.150;4.466;2023-04-28T03:40:17;101070.97;;;9.72;100.00
66273;BME280;58450;52.150;4.466;2023-04-28T03:42:46;101064.94;;;9.70;99.99
66273;BME280;58450;52.150;4.466;2023-04-28T03:45:14;101074.38;;;9.66;99.35
66273;BME280;58450;52.150;4.466;2023-04-28T03:47:42;101075.38;;;9.65;98.69
66273;BME280;58450;52.150;4.466;2023-04-28T03:50:09;101070.31;;;9.70;98.42
66273;BME280;58450;52.150;4.466;2023-04-28T03:52:37;101070.13;;;9.72;98.24
66273;BME280;58450;52.150;4.466;2023-04-28T03:55:05;101059.25;;;9.65;97.30
66273;BME280;58450;52.150;4.466;2023-04-28T03:57:33;101059.25;;;9.65;97.88
66273;BME280;58450;52.150;4.466;2023-04-28T04:00:03;101054.22;;;9.62;98.14
66273;BME280;58450;52.150;4.466;2023-04-28T04:02:31;101055.28;;;9.53;99.89
66273;BME280;58450;52.150;4.466;2023-04-28T04:04:58;101051.59;;;9.54;100.00
66273;BME280;58450;52.150;4.466;2023-04-28T04:07:26;101050.75;;;9.53;100.00
66273;BME280;58450;52.150;4.466;2023-04-28T04:09:53;101049.47;;;9.41;100.00
66273;BME280;58450;52.150;4.466;2023-04-28T04:12:21;101045.44;;;9.45;100.00
66273;BME280;58450;52.150;4.466;2023-04-28T04:14:48;101055.47;;;9.51;100.00
66273;BME280;58450;52.150;4.466;2023-04-28T04:17:17;101055.28;;;9.53;100.00
66273;BME280;58450;52.150;4.466;2023-04-28T04:19:45;101057.63;;;9.56;100.00
66273;BME280;58450;52.150;4.466;2023-04-28T04:22:12;101054.44;;;9.60;100.00
66273;BME280;58450;52.150;4.466;2023-04-28T04:24:40;101056.09;;;9.61;100.00
66273;BME280;58450;52.150;4.466;2023-04-28T04:27:07;101060.47;;;9.63;100.00
66273;BME280;58450;52.150;4.466;2023-04-28T04:29:35;101066.81;;;9.70;100.00
66273;BME280;58450;52.150;4.466;2023-04-28T04:32:03;101069.31;;;9.71;100.00
66273;BME280;58450;52.150;4.466;2023-04-28T04:34:32;101059.34;;;9.80;100.00
66273;BME280;58450;52.150;4.466;2023-04-28T04:37:00;101067.25;;;9.82;100.00
66273;BME280;58450;52.150;4.466;2023-04-28T04:39:27;101068.56;;;9.86;100.00
66273;BME280;58450;52.150;4.466;2023-04-28T04:41:55;101075.41;;;9.88;100.00
66273;BME280;58450;52.150;4.466;2023-04-28T04:44:22;101075.78;;;9.85;100.00
66273;BME280;58450;52.150;4.466;2023-04-28T04:46:50;101063.53;;;9.83;100.00
66273;BME280;58450;52.150;4.466;2023-04-28T04:49:18;101057.31;;;9.82;100.00
66273;BME280;58450;52.150;4.466;2023-04-28T04:51:48;101049.44;;;9.81;100.00
66273;BME280;58450;52.150;4.466;2023-04-28T04:54:15;101029.81;;;9.72;100.00
66273;BME280;58450;52.150;4.466;2023-04-28T04:56:43;101015.50;;;9.56;100.00
66273;BME280;58450;52.150;4.466;2023-04-28T04:59:10;100999.56;;;9.46;100.00
66273;BME280;58450;52.150;4.466;2023-04-28T05:01:38;100986.00;;;9.40;100.00
66273;BME280;58450;52.150;4.466;2023-04-28T05:04:05;100987.88;;;9.31;100.00
66273;BME280;58450;52.150;4.466;2023-04-28T05:06:33;100991.31;;;9.25;100.00
66273;BME280;58450;52.150;4.466;2023-04-28T05:09:02;100993.78;;;9.26;100.00
66273;BME280;58450;52.150;4.466;2023-04-28T05:11:29;100999.56;;;9.07;100.00
66273;BME280;58450;52.150;4.466;2023-04-28T05:13:57;100996.72;;;9.08;100.00
66273;BME280;58450;52.150;4.466;2023-04-28T05:16:24;100994.06;;;9.08;100.00
66273;BME280;58450;52.150;4.466;2023-04-28T05:18:52;100988.00;;;9.06;100.00
66273;BME280;58450;52.150;4.466;2023-04-28T05:21:19;100975.28;;;9.00;100.00
66273;BME280;58450;52.150;4.466;2023-04-28T05:23:47;100967.38;;;8.98;100.00
66273;BME280;58450;52.150;4.466;2023-04-28T05:26:16;100967.22;;;9.00;100.00
66273;BME280;58450;52.150;4.466;2023-04-28T05:28:43;100972.47;;;8.85;100.00
66273;BME280;58450;52.150;4.466;2023-04-28T05:31:11;100972.13;;;8.88;100.00
66273;BME280;58450;52.150;4.466;2023-04-28T05:33:38;100977.13;;;8.99;100.00
66273;BME280;58450;52.150;4.466;2023-04-28T05:36:06;100989.03;;;9.05;100.00
66273;BME280;58450;52.150;4.466;2023-04-28T05:38:34;100985.69;;;9.03;100.00
66273;BME280;58450;52.150;4.466;2023-04-28T05:41:02;100992.00;;;9.19;100.00
66273;BME280;58450;52.150;4.466;2023-04-28T05:43:31;100994.00;;;9.25;100.00
66273;BME280;58450;52.150;4.466;2023-04-28T05:45:59;101007.53;;;9.31;100.00
66273;BME280;58450;52.150;4.466;2023-04-28T05:48:26;101013.06;;;9.30;100.00
66273;BME280;58450;52.150;4.466;2023-04-28T05:50:54;101007.31;;;9.41;100.00
66273;BME280;58450;52.150;4.466;2023-04-28T05:53:21;101001.78;;;9.43;100.00
66273;BME280;58450;52.150;4.466;2023-04-28T05:55:49;101001.09;;;9.49;100.00
66273;BME280;58450;52.150;4.466;2023-04-28T05:58:17;100999.97;;;9.35;100.00
66273;BME280;58450;52.150;4.466;2023-04-28T06:00:46;101002.91;;;9.49;100.00
66273;BME280;58450;52.150;4.466;2023-04-28T06:03:13;101009.44;;;9.54;100.00
66273;BME280;58450;52.150;4.466;2023-04-28T06:05:43;101008.41;;;9.64;100.00
66273;BME280;58450;52.150;4.466;2023-04-28T06:08:11;101004.00;;;9.71;100.00
66273;BME280;58450;52.150;4.466;2023-04-28T06:10:39;100990.72;;;9.69;100.00
66273;BME280;58450;52.150;4.466;2023-04-28T06:13:06;100990.75;;;9.61;100.00
66273;BME280;58450;52.150;4.466;2023-04-28T06:15:34;100997.00;;;9.61;100.00
66273;BME280;58450;52.150;4.466;2023-04-28T06:18:03;100983.66;;;9.68;100.00
66273;BME280;58450;52.150;4.466;2023-04-28T06:20:32;100988.34;;;9.74;100.00
66273;BME280;58450;52.150;4.466;2023-04-28T06:23:00;100987.25;;;9.84;100.00
66273;BME280;58450;52.150;4.466;2023-04-28T06:25:29;100986.25;;;9.85;100.00
66273;BME280;58450;52.150;4.466;2023-04-28T06:27:57;100978.75;;;9.72;100.00
66273;BME280;58450;52.150;4.466;2023-04-28T06:30:24;100967.28;;;9.78;100.00
66273;BME280;58450;52.150;4.466;2023-04-28T06:32:52;100976.50;;;9.84;100.00
66273;BME280;58450;52.150;4.466;2023-04-28T06:35:21;100972.16;;;9.83;100.00
66273;BME280;58450;52.150;4.466;2023-04-28T06:37:48;100973.94;;;9.90;100.00
66273;BME280;58450;52.150;4.466;2023-04-28T06:40:16;100971.53;;;9.96;100.00
66273;BME280;58450;52.150;4.466;2023-04-28T06:42:44;100968.19;;;9.94;100.00
66273;BME280;58450;52.150;4.466;2023-04-28T06:45:11;100972.69;;;10.01;100.00
66273;BME280;58450;52.150;4.466;2023-04-28T06:47:39;100980.41;;;10.04;100.00
66273;BME280;58450;52.150;4.466;2023-04-28T06:50:07;100976.78;;;10.12;100.00
66273;BME280;58450;52.150;4.466;2023-04-28T06:52:36;100978.81;;;10.10;100.00
66273;BME280;58450;52.150;4.466;2023-04-28T06:55:05;100978.94;;;10.17;100.00
66273;BME280;58450;52.150;4.466;2023-04-28T06:57:34;100968.81;;;10.19;100.00
66273;BME280;58450;52.150;4.466;2023-04-28T07:00:03;100975.34;;;10.25;100.00
66273;BME280;58450;52.150;4.466;2023-04-28T07:02:33;100975.06;;;10.19;100.00
66273;BME280;58450;52.150;4.466;2023-04-28T07:05:01;100977.25;;;10.16;100.00
66273;BME280;58450;52.150;4.466;2023-04-28T07:07:29;100975.16;;;10.26;100.00
66273;BME280;58450;52.150;4.466;2023-04-28T07:09:58;100980.28;;;10.36;100.00
66273;BME280;58450;52.150;4.466;2023-04-28T07:12:26;100982.78;;;10.38;100.00
66273;BME280;58450;52.150;4.466;2023-04-28T07:14:54;100984.41;;;10.47;100.00
66273;BME280;58450;52.150;4.466;2023-04-28T07:17:21;100978.59;;;10.58;100.00
66273;BME280;58450;52.150;4.466;2023-04-28T07:19:49;100974.59;;;10.54;100.00
66273;BME280;58450;52.150;4.466;2023-04-28T07:22:16;100979.59;;;10.42;100.00
66273;BME280;58450;52.150;4.466;2023-04-28T07:24:44;100967.00;;;10.34;100.00
66273;BME280;58450;52.150;4.466;2023-04-28T07:27:13;100971.31;;;10.44;100.00
66273;BME280;58450;52.150;4.466;2023-04-28T07:29:40;100970.06;;;10.55;100.00
66273;BME280;58450;52.150;4.466;2023-04-28T07:32:08;100975.81;;;10.67;100.00
66273;BME280;58450;52.150;4.466;2023-04-28T07:34:36;100972.28;;;10.81;100.00
66273;BME280;58450;52.150;4.466;2023-04-28T07:37:04;100974.78;;;10.83;100.00
66273;BME280;58450;52.150;4.466;2023-04-28T07:39:31;100967.53;;;10.68;100.00
66273;BME280;58450;52.150;4.466;2023-04-28T07:42:00;100969.03;;;10.71;100.00
66273;BME280;58450;52.150;4.466;2023-04-28T07:44:30;100968.75;;;10.81;100.00
66273;BME280;58450;52.150;4.466;2023-04-28T07:46:58;100970.63;;;10.80;100.00
66273;BME280;58450;52.150;4.466;2023-04-28T07:49:27;100970.31;;;11.05;100.00
66273;BME280;58450;52.150;4.466;2023-04-28T07:51:55;100970.69;;;11.17;100.00
66273;BME280;58450;52.150;4.466;2023-04-28T07:54:23;100964.06;;;11.34;100.00
66273;BME280;58450;52.150;4.466;2023-04-28T07:56:51;100971.19;;;11.42;100.00
66273;BME280;58450;52.150;4.466;2023-04-28T07:59:19;100968.81;;;11.32;100.00
66273;BME280;58450;52.150;4.466;2023-04-28T08:01:48;100968.06;;;11.23;100.00
66273;BME280;58450;52.150;4.466;2023-04-28T08:04:15;100964.44;;;11.31;100.00
66273;BME280;58450;52.150;4.466;2023-04-28T08:06:43;100966.03;;;11.26;100.00
66273;BME280;58450;52.150;4.466;2023-04-28T08:09:10;100975.22;;;11.16;100.00
66273;BME280;58450;52.150;4.466;2023-04-28T08:11:38;100972.53;;;11.16;100.00
66273;BME280;58450;52.150;4.466;2023-04-28T08:14:05;100968.81;;;11.17;100.00
66273;BME280;58450;52.150;4.466;2023-04-28T08:16:33;100974.09;;;11.26;100.00
66273;BME280;58450;52.150;4.466;2023-04-28T08:19:04;100978.63;;;11.40;100.00
66273;BME280;58450;52.150;4.466;2023-04-28T08:21:32;100980.00;;;11.51;100.00
66273;BME280;58450;52.150;4.466;2023-04-28T08:23:59;100965.63;;;11.65;100.00
66273;BME280;58450;52.150;4.466;2023-04-28T08:26:28;100959.69;;;11.70;100.00
66273;BME280;58450;52.150;4.466;2023-04-28T08:28:56;100964.88;;;11.72;100.00
66273;BME280;58450;52.150;4.466;2023-04-28T08:31:23;100962.13;;;11.65;100.00
66273;BME280;58450;52.150;4.466;2023-04-28T08:33:51;100970.22;;;11.65;100.00
66273;BME280;58450;52.150;4.466;2023-04-28T08:36:20;100963.53;;;11.82;100.00
66273;BME280;58450;52.150;4.466;2023-04-28T08:38:48;100961.34;;;11.93;100.00
66273;BME280;58450;52.150;4.466;2023-04-28T08:41:16;100959.00;;;12.05;100.00
66273;BME280;58450;52.150;4.466;2023-04-28T08:43:44;100957.59;;;12.09;100.00
66273;BME280;58450;52.150;4.466;2023-04-28T08:46:13;100943.31;;;12.15;100.00
66273;BME280;58450;52.150;4.466;2023-04-28T08:48:42;100960.06;;;12.10;100.00
66273;BME280;58450;52.150;4.466;2023-04-28T08:51:14;100955.41;;;12.19;100.00
66273;BME280;58450;52.150;4.466;2023-04-28T08:53:49;100953.97;;;12.23;100.00
66273;BME280;58450;52.150;4.466;2023-04-28T08:56:20;100956.31;;;12.33;100.00
66273;BME280;58450;52.150;4.466;2023-04-28T08:58:52;100952.69;;;12.48;100.00
66273;BME280;58450;52.150;4.466;2023-04-28T09:01:21;100935.50;;;12.55;100.00
66273;BME280;58450;52.150;4.466;2023-04-28T09:03:48;100949.22;;;12.61;100.00
66273;BME280;58450;52.150;4.466;2023-04-28T09:06:16;100949.19;;;12.54;100.00
66273;BME280;58450;52.150;4.466;2023-04-28T09:08:45;100955.66;;;12.60;100.00
66273;BME280;58450;52.150;4.466;2023-04-28T09:11:12;100946.50;;;12.54;100.00
66273;BME280;58450;52.150;4.466;2023-04-28T09:13:42;100943.50;;;12.70;100.00
66273;BME280;58450;52.150;4.466;2023-04-28T09:16:09;100946.03;;;12.79;100.00
66273;BME280;58450;52.150;4.466;2023-04-28T09:18:38;100939.00;;;12.84;100.00
66273;BME280;58450;52.150;4.466;2023-04-28T09:21:06;100937.63;;;12.67;100.00
66273;BME280;58450;52.150;4.466;2023-04-28T09:23:47;100935.03;;;12.80;100.00
66273;BME280;58450;52.150;4.466;2023-04-28T09:26:15;100935.03;;;12.87;100.00
66273;BME280;58450;52.150;4.466;2023-04-28T09:28:43;100940.66;;;12.85;100.00
66273;BME280;58450;52.150;4.466;2023-04-28T09:31:23;100938.66;;;13.01;100.00
66273;BME280;58450;52.150;4.466;2023-04-28T09:33:56;100934.06;;;12.95;100.00
66273;BME280;58450;52.150;4.466;2023-04-28T09:36:26;100935.44;;;12.84;100.00
66273;BME280;58450;52.150;4.466;2023-04-28T09:38:57;100938.19;;;12.91;100.00
66273;BME280;58450;52.150;4.466;2023-04-28T09:41:34;100935.72;;;12.96;100.00
66273;BME280;58450;52.150;4.466;2023-04-28T09:44:12;100944.41;;;12.91;100.00
66273;BME280;58450;52.150;4.466;2023-04-28T09:46:41;100940.78;;;12.70;100.00
66273;BME280;58450;52.150;4.466;2023-04-28T09:49:10;100939.19;;;12.83;100.00
66273;BME280;58450;52.150;4.466;2023-04-28T09:51:38;100934.47;;;12.98;100.00
66273;BME280;58450;52.150;4.466;2023-04-28T09:54:07;100951.38;;;12.72;100.00
66273;BME280;58450;52.150;4.466;2023-04-28T09:56:36;100952.63;;;12.69;100.00
66273;BME280;58450;52.150;4.466;2023-04-28T09:59:04;100953.94;;;12.80;100.00
66273;BME280;58450;52.150;4.466;2023-04-28T10:01:36;100947.97;;;12.98;100.00
66273;BME280;58450;52.150;4.466;2023-04-28T10:04:05;100944.81;;;12.88;100.00
66273;BME280;58450;52.150;4.466;2023-04-28T10:06:34;100955.28;;;12.98;100.00
66273;BME280;58450;52.150;4.466;2023-04-28T10:09:02;100947.75;;;12.93;100.00
66273;BME280;58450;52.150;4.466;2023-04-28T10:11:31;100951.53;;;13.06;100.00
66273;BME280;58450;52.150;4.466;2023-04-28T10:13:59;100948.38;;;12.95;100.00
66273;BME280;58450;52.150;4.466;2023-04-28T10:16:29;100955.31;;;12.69;100.00
66273;BME280;58450;52.150;4.466;2023-04-28T10:18:58;100950.03;;;12.90;100.00
66273;BME280;58450;52.150;4.466;2023-04-28T10:21:28;100958.50;;;12.80;100.00
66273;BME280;58450;52.150;4.466;2023-04-28T10:24:14;100958.28;;;12.81;100.00
66273;BME280;58450;52.150;4.466;2023-04-28T10:27:01;100965.59;;;12.88;100.00
66273;BME280;58450;52.150;4.466;2023-04-28T10:29:34;100962.03;;;12.80;100.00
66273;BME280;58450;52.150;4.466;2023-04-28T10:32:16;100963.75;;;12.60;100.00
66273;BME280;58450;52.150;4.466;2023-04-28T10:34:48;100968.19;;;12.67;100.00
66273;BME280;58450;52.150;4.466;2023-04-28T10:37:19;100974.13;;;12.56;100.00
66273;BME280;58450;52.150;4.466;2023-04-28T10:40:33;100973.94;;;12.57;100.00
66273;BME280;58450;52.150;4.466;2023-04-28T10:43:01;100981.09;;;12.44;100.00
66273;BME280;58450;52.150;4.466;2023-04-28T10:45:57;100976.84;;;12.27;100.00
66273;BME280;58450;52.150;4.466;2023-04-28T10:48:51;100975.34;;;12.25;100.00
66273;BME280;58450;52.150;4.466;2023-04-28T10:51:27;100983.31;;;12.33;100.00
66273;BME280;58450;52.150;4.466;2023-04-28T10:54:08;100980.72;;;12.47;100.00
66273;BME280;58450;52.150;4.466;2023-04-28T10:57:17;100986.63;;;12.35;100.00
66273;BME280;58450;52.150;4.466;2023-04-28T10:59:50;100983.84;;;12.22;100.00
66273;BME280;58450;52.150;4.466;2023-04-28T11:02:37;100982.47;;;12.61;100.00
66273;BME280;58450;52.150;4.466;2023-04-28T11:05:13;100969.84;;;12.68;100.00
66273;BME280;58450;52.150;4.466;2023-04-28T11:11:19;100977.47;;;12.58;100.00
66273;BME280;58450;52.150;4.466;2023-04-28T11:13:51;100978.03;;;12.53;100.00
66273;BME280;58450;52.150;4.466;2023-04-28T11:16:22;100973.50;;;12.54;100.00
66273;BME280;58450;52.150;4.466;2023-04-28T11:18:56;100975.25;;;12.40;100.00
66273;BME280;58450;52.150;4.466;2023-04-28T11:21:29;100985.00;;;12.41;100.00
66273;BME280;58450;52.150;4.466;2023-04-28T11:23:58;100980.56;;;12.26;100.00
66273;BME280;58450;52.150;4.466;2023-04-28T11:26:26;100987.38;;;12.22;100.00
66273;BME280;58450;52.150;4.466;2023-04-28T11:28:56;100976.84;;;12.27;100.00
66273;BME280;58450;52.150;4.466;2023-04-28T11:31:25;100989.84;;;12.46;100.00
66273;BME280;58450;52.150;4.466;2023-04-28T11:33:59;100979.28;;;12.51;100.00
66273;BME280;58450;52.150;4.466;2023-04-28T11:36:32;100983.97;;;12.42;100.00
66273;BME280;58450;52.150;4.466;2023-04-28T11:39:02;100979.84;;;12.46;100.00
66273;BME280;58450;52.150;4.466;2023-04-28T11:41:33;100973.44;;;12.47;100.00
66273;BME280;58450;52.150;4.466;2023-04-28T11:44:10;100992.75;;;12.73;100.00
66273;BME280;58450;52.150;4.466;2023-04-28T11:46:47;100984.25;;;12.76;100.00
66273;BME280;58450;52.150;4.466;2023-04-28T11:49:19;100994.78;;;12.70;100.00
66273;BME280;58450;52.150;4.466;2023-04-28T11:51:47;100990.97;;;12.93;100.00
66273;BME280;58450;52.150;4.466;2023-04-28T11:54:19;100986.31;;;12.74;100.00
66273;BME280;58450;52.150;4.466;2023-04-28T11:56:48;101001.22;;;12.69;100.00
66273;BME280;58450;52.150;4.466;2023-04-28T11:59:21;100995.69;;;12.84;100.00
66273;BME280;58450;52.150;4.466;2023-04-28T12:01:51;100987.13;;;12.74;100.00
66273;BME280;58450;52.150;4.466;2023-04-28T12:04:27;100986.25;;;13.02;100.00
66273;BME280;58450;52.150;4.466;2023-04-28T12:06:59;100998.78;;;12.75;100.00
66273;BME280;58450;52.150;4.466;2023-04-28T12:09:28;100999.97;;;12.72;100.00
66273;BME280;58450;52.150;4.466;2023-04-28T12:11:58;100990.38;;;12.98;100.00
66273;BME280;58450;52.150;4.466;2023-04-28T12:14:29;101004.69;;;12.92;100.00
66273;BME280;58450;52.150;4.466;2023-04-28T12:17:00;100994.53;;;13.00;100.00
66273;BME280;58450;52.150;4.466;2023-04-28T12:19:29;100997.13;;;12.80;100.00
66273;BME280;58450;52.150;4.466;2023-04-28T12:22:01;100992.06;;;13.06;100.00
66273;BME280;58450;52.150;4.466;2023-04-28T12:24:29;100997.84;;;12.96;100.00
66273;BME280;58450;52.150;4.466;2023-04-28T12:27:16;101018.50;;;13.10;100.00
66273;BME280;58450;52.150;4.466;2023-04-28T12:29:47;101008.97;;;13.14;100.00
66273;BME280;58450;52.150;4.466;2023-04-28T12:32:16;101016.22;;;13.14;100.00
66273;BME280;58450;52.150;4.466;2023-04-28T12:34:45;101020.13;;;13.05;100.00
66273;BME280;58450;52.150;4.466;2023-04-28T12:37:13;101014.78;;;13.11;100.00
66273;BME280;58450;52.150;4.466;2023-04-28T12:39:41;101022.88;;;13.11;100.00
66273;BME280;58450;52.150;4.466;2023-04-28T12:42:08;101020.84;;;13.20;100.00
66273;BME280;58450;52.150;4.466;2023-04-28T12:44:37;101016.69;;;13.66;100.00
66273;BME280;58450;52.150;4.466;2023-04-28T12:47:08;101022.75;;;13.88;100.00
66273;BME280;58450;52.150;4.466;2023-04-28T12:49:37;101032.91;;;13.66;100.00
66273;BME280;58450;52.150;4.466;2023-04-28T12:52:05;101028.16;;;13.33;100.00
66273;BME280;58450;52.150;4.466;2023-04-28T12:54:33;101026.41;;;13.12;100.00
66273;BME280;58450;52.150;4.466;2023-04-28T12:57:00;101020.50;;;13.37;100.00
66273;BME280;58450;52.150;4.466;2023-04-28T12:59:29;101028.31;;;13.18;100.00